Time;durP1;ratioP1;P1;durP2;ratioP2;P2;SDS_P1;SDS_P2;PMS_P1;PMS_P2;Temp;Humidity;BMP_temperature;BMP_pressure;BME280_temperature;BME280_humidity;BME280_pressure;Samples;Min_cycle;Max_cycle;Signal;HPM_P1;HPM_P2
2023/05/07 00:01:59;;;;;;;;;3.75;3.75;;;;;;;;6254895;22;31660;-71
2023/05/07 00:04:25;;;;;;;;;3.00;3.00;;;;;;;;6255898;22;31167;-71
2023/05/07 00:06:50;;;;;;;;;3.00;3.00;;;;;;;;6228031;22;30982;-71
2023/05/07 00:09:16;;;;;;;;;5.75;4.00;;;;;;;;6255634;22;31345;-71
2023/05/07 00:11:41;;;;;;;;;5.25;4.25;;;;;;;;6255446;22;31482;-74
2023/05/07 00:14:06;;;;;;;;;4.50;4.00;;;;;;;;6254473;22;30979;-71
2023/05/07 00:16:32;;;;;;;;;3.00;3.00;;;;;;;;6255362;22;31102;-73
2023/05/07 00:18:57;;;;;;;;;3.75;3.75;;;;;;;;6254994;22;31073;-73
2023/05/07 00:21:22;;;;;;;;;2.50;2.50;;;;;;;;6254865;22;32701;-73
2023/05/07 00:23:47;;;;;;;;;3.00;3.00;;;;;;;;6254950;22;31484;-74
2023/05/07 00:26:12;;;;;;;;;4.00;4.00;;;;;;;;6254925;22;31130;-73
2023/05/07 00:28:38;;;;;;;;;4.75;4.00;;;;;;;;6255327;22;31346;-73
2023/05/07 00:31:03;;;;;;;;;4.50;3.25;;;;;;;;6227543;22;31737;-73
2023/05/07 00:33:28;;;;;;;;;4.75;4.75;;;;;;;;6255079;22;31184;-73
2023/05/07 00:35:56;;;;;;;;;6.00;5.25;;;;;;;;6255181;22;31478;-73
2023/05/07 00:38:21;;;;;;;;;5.00;5.00;;;;;;;;6255088;22;31274;-73
2023/05/07 00:40:47;;;;;;;;;5.00;4.00;;;;;;;;6254908;22;31895;-73
2023/05/07 00:43:12;;;;;;;;;4.50;4.50;;;;;;;;6254808;22;31081;-73
2023/05/07 00:45:38;;;;;;;;;5.75;4.50;;;;;;;;6227372;22;30935;-73
2023/05/07 00:48:03;;;;;;;;;5.50;4.00;;;;;;;;6255021;22;31409;-71
2023/05/07 00:50:29;;;;;;;;;4.00;4.00;;;;;;;;6254786;22;31568;-73
2023/05/07 00:52:55;;;;;;;;;6.25;4.00;;;;;;;;6255269;22;31136;-73
2023/05/07 00:55:21;;;;;;;;;4.25;4.25;;;;;;;;6254515;22;31034;-73
2023/05/07 00:57:46;;;;;;;;;4.00;4.00;;;;;;;;6254958;22;31233;-71
2023/05/07 01:00:12;;;;;;;;;4.00;2.75;;;;;;;;6254367;22;32753;-73
2023/05/07 01:02:40;;;;;;;;;5.00;4.00;;;;;;;;6254977;22;31046;-73
2023/05/07 01:05:07;;;;;;;;;6.00;6.00;;;;;;;;6255271;22;31026;-72
2023/05/07 01:07:33;;;;;;;;;3.00;3.00;;;;;;;;6254932;22;31323;-73
2023/05/07 01:09:58;;;;;;;;;4.25;4.25;;;;;;;;6254507;22;31926;-73
2023/05/07 01:12:24;;;;;;;;;2.25;2.00;;;;;;;;6255123;22;31063;-73
2023/05/07 01:14:50;;;;;;;;;3.75;3.75;;;;;;;;6254512;22;31180;-71
2023/05/07 01:17:15;;;;;;;;;4.00;4.00;;;;;;;;6254704;22;31370;-73
2023/05/07 01:19:41;;;;;;;;;3.75;3.75;;;;;;;;6254379;22;31668;-73
2023/05/07 01:22:11;;;;;;;;;4.00;4.00;;;;;;;;6254385;22;31369;-73
2023/05/07 01:24:36;;;;;;;;;5.00;5.00;;;;;;;;6255283;22;31410;-72
2023/05/07 01:27:01;;;;;;;;;4.75;4.00;;;;;;;;6256323;22;30991;-73
2023/05/07 01:29:27;;;;;;;;;3.25;3.00;;;;;;;;6256542;22;31022;-73
2023/05/07 01:31:52;;;;;;;;;3.00;3.00;;;;;;;;6228386;22;31377;-73
2023/05/07 01:34:19;;;;;;;;;2.00;2.00;;;;;;;;6256032;22;31083;-74
2023/05/07 01:36:45;;;;;;;;;2.00;2.00;;;;;;;;6255860;22;31080;-73
2023/05/07 01:39:12;;;;;;;;;2.00;2.00;;;;;;;;6255654;22;32921;-73
2023/05/07 01:41:37;;;;;;;;;2.00;2.00;;;;;;;;6255741;22;31092;-73
2023/05/07 01:44:03;;;;;;;;;2.25;1.25;;;;;;;;6255987;22;31700;-74
2023/05/07 01:46:28;;;;;;;;;0.25;0.25;;;;;;;;6256663;22;31006;-71
2023/05/07 01:48:54;;;;;;;;;2.00;2.00;;;;;;;;6255821;22;31809;-73
2023/05/07 01:51:20;;;;;;;;;0.00;0.00;;;;;;;;6255356;22;31143;-73
2023/05/07 01:53:47;;;;;;;;;1.00;1.00;;;;;;;;6255420;22;31192;-73
2023/05/07 01:56:12;;;;;;;;;0.75;0.75;;;;;;;;6229088;22;31165;-73
2023/05/07 01:58:38;;;;;;;;;1.00;1.00;;;;;;;;6255394;22;32689;-74
2023/05/07 02:01:03;;;;;;;;;0.00;0.00;;;;;;;;6255266;22;31049;-74
2023/05/07 02:03:28;;;;;;;;;1.00;1.00;;;;;;;;6256159;22;30985;-73
2023/05/07 02:05:54;;;;;;;;;1.00;1.00;;;;;;;;6256468;22;30984;-73
2023/05/07 02:08:19;;;;;;;;;1.50;1.50;;;;;;;;6255652;22;31051;-74
2023/05/07 02:10:44;;;;;;;;;1.75;1.75;;;;;;;;6255258;22;31069;-74
2023/05/07 02:13:09;;;;;;;;;0.75;0.75;;;;;;;;6255786;22;31073;-73
2023/05/07 02:15:35;;;;;;;;;1.25;1.25;;;;;;;;6256011;22;31097;-73
2023/05/07 02:18:03;;;;;;;;;0.00;0.00;;;;;;;;6255695;22;32555;-73
2023/05/07 02:20:28;;;;;;;;;1.25;1.25;;;;;;;;6256312;22;31091;-73
2023/05/07 02:22:53;;;;;;;;;3.25;1.00;;;;;;;;6255582;22;31089;-73
2023/05/07 02:25:19;;;;;;;;;2.00;2.00;;;;;;;;6256283;22;30981;-74
2023/05/07 02:27:44;;;;;;;;;2.50;2.50;;;;;;;;6255687;22;31605;-73
2023/05/07 02:30:09;;;;;;;;;1.00;1.00;;;;;;;;6255774;22;31294;-73
2023/05/07 02:32:35;;;;;;;;;3.00;2.00;;;;;;;;6256163;22;31135;-73
2023/05/07 02:35:00;;;;;;;;;0.50;0.50;;;;;;;;6257065;22;31001;-74
2023/05/07 02:37:25;;;;;;;;;1.00;1.00;;;;;;;;6255849;22;32017;-73
2023/05/07 02:39:50;;;;;;;;;1.50;1.50;;;;;;;;6255607;22;31045;-73
2023/05/07 02:42:15;;;;;;;;;13.25;13.25;;;;;;;;6255368;22;30959;-73
2023/05/07 02:44:40;;;;;;;;;10.75;10.75;;;;;;;;6228150;22;31367;-73
2023/05/07 02:47:08;;;;;;;;;7.00;7.00;;;;;;;;6255895;22;31105;-73
2023/05/07 02:49:33;;;;;;;;;11.25;11.25;;;;;;;;6255569;22;31145;-73
2023/05/07 02:51:58;;;;;;;;;8.00;8.00;;;;;;;;6254975;22;30966;-73
2023/05/07 02:54:23;;;;;;;;;8.00;7.00;;;;;;;;6256120;22;31352;-73
2023/05/07 02:56:48;;;;;;;;;8.00;7.75;;;;;;;;6255546;22;31113;-74
2023/05/07 02:59:14;;;;;;;;;3.50;3.50;;;;;;;;6255774;22;31059;-74
2023/05/07 03:01:39;;;;;;;;;5.50;4.00;;;;;;;;6255924;22;31141;-74
2023/05/07 03:04:04;;;;;;;;;4.00;3.00;;;;;;;;6255095;22;31261;-73
2023/05/07 03:06:29;;;;;;;;;3.50;3.50;;;;;;;;6255739;22;31689;-73
2023/05/07 03:08:54;;;;;;;;;3.25;3.25;;;;;;;;6256127;22;31038;-73
2023/05/07 03:11:20;;;;;;;;;3.00;2.75;;;;;;;;6256015;22;31150;-74
2023/05/07 03:13:45;;;;;;;;;1.50;1.50;;;;;;;;6256430;22;31031;-73
2023/05/07 03:16:10;;;;;;;;;2.00;2.00;;;;;;;;6255978;22;31771;-73
2023/05/07 03:18:35;;;;;;;;;3.25;2.00;;;;;;;;6255632;22;31100;-73
2023/05/07 03:21:01;;;;;;;;;3.50;2.00;;;;;;;;6255807;22;31188;-73
2023/05/07 03:23:26;;;;;;;;;3.75;3.75;;;;;;;;6256276;22;31373;-73
2023/05/07 03:25:51;;;;;;;;;2.25;2.25;;;;;;;;6255148;22;32824;-73
2023/05/07 03:28:16;;;;;;;;;2.00;2.00;;;;;;;;6255669;22;31136;-73
2023/05/07 03:30:41;;;;;;;;;1.75;1.75;;;;;;;;6255649;22;31204;-73
2023/05/07 03:33:06;;;;;;;;;3.50;3.00;;;;;;;;6256037;22;31117;-73
2023/05/07 03:35:32;;;;;;;;;3.00;2.00;;;;;;;;6256026;22;31156;-73
2023/05/07 03:37:57;;;;;;;;;2.50;2.50;;;;;;;;6255302;22;31180;-73
2023/05/07 03:40:22;;;;;;;;;1.00;1.00;;;;;;;;6255546;22;31052;-73
2023/05/07 03:42:47;;;;;;;;;2.75;2.75;;;;;;;;6255366;22;30978;-73
2023/05/07 03:45:12;;;;;;;;;3.50;2.00;;;;;;;;6255420;22;31867;-73
2023/05/07 03:47:37;;;;;;;;;3.00;3.00;;;;;;;;6255778;22;31427;-73
2023/05/07 03:50:03;;;;;;;;;2.00;2.00;;;;;;;;6255546;22;30983;-73
2023/05/07 03:52:28;;;;;;;;;4.50;3.75;;;;;;;;6255381;22;31019;-74
2023/05/07 03:54:53;;;;;;;;;6.00;3.75;;;;;;;;6255046;22;31858;-73
2023/05/07 03:57:18;;;;;;;;;3.25;3.25;;;;;;;;6255783;22;31237;-73
2023/05/07 03:59:44;;;;;;;;;3.00;3.00;;;;;;;;6255046;22;31425;-74
2023/05/07 04:02:09;;;;;;;;;2.00;2.00;;;;;;;;6255413;22;31333;-73
2023/05/07 04:04:34;;;;;;;;;2.50;2.50;;;;;;;;6255629;22;31098;-74
2023/05/07 04:07:00;;;;;;;;;0.25;0.25;;;;;;;;6255789;22;31046;-73
2023/05/07 04:09:25;;;;;;;;;3.00;2.00;;;;;;;;6255318;22;31060;-73
2023/05/07 04:11:50;;;;;;;;;1.00;1.00;;;;;;;;6255511;22;31287;-73
2023/05/07 04:14:16;;;;;;;;;2.00;2.00;;;;;;;;6255179;22;32073;-73
2023/05/07 04:16:41;;;;;;;;;2.00;2.00;;;;;;;;6255174;22;31074;-73
2023/05/07 04:19:06;;;;;;;;;3.75;2.75;;;;;;;;6255133;22;31383;-73
2023/05/07 04:21:31;;;;;;;;;5.00;3.00;;;;;;;;6254969;22;31253;-73
2023/05/07 04:23:57;;;;;;;;;3.00;3.00;;;;;;;;6254791;22;31112;-73
2023/05/07 04:26:23;;;;;;;;;5.25;2.00;;;;;;;;6234330;22;50154;-73
2023/05/07 04:28:48;;;;;;;;;5.00;5.00;;;;;;;;6234494;22;49568;-72
2023/05/07 04:31:13;;;;;;;;;6.75;5.00;;;;;;;;6234885;22;49810;-72
2023/05/07 04:33:38;;;;;;;;;2.75;2.50;;;;;;;;6234945;22;50160;-71
2023/05/07 04:36:04;;;;;;;;;3.75;2.75;;;;;;;;6234405;22;49770;-73
2023/05/07 04:38:32;;;;;;;;;1.00;1.00;;;;;;;;6207308;22;50108;-74
2023/05/07 04:41:02;;;;;;;;;2.25;0.75;;;;;;;;6234707;22;49681;-73
2023/05/07 04:43:27;;;;;;;;;3.25;2.25;;;;;;;;6234005;22;51546;-73
2023/05/07 04:45:52;;;;;;;;;3.50;1.00;;;;;;;;6234143;22;49805;-73
2023/05/07 04:48:19;;;;;;;;;5.00;4.00;;;;;;;;6234896;22;49829;-72
2023/05/07 04:50:47;;;;;;;;;4.00;4.00;;;;;;;;6233499;22;50107;-73
2023/05/07 04:53:12;;;;;;;;;2.75;2.75;;;;;;;;6206637;22;51368;-73
2023/05/07 04:55:37;;;;;;;;;5.00;4.25;;;;;;;;6234289;22;49730;-73
2023/05/07 04:58:02;;;;;;;;;2.00;2.00;;;;;;;;6234304;22;49849;-73
2023/05/07 05:00:28;;;;;;;;;3.00;3.00;;;;;;;;6235420;22;49594;-72
2023/05/07 05:02:53;;;;;;;;;3.00;3.00;;;;;;;;6255333;22;49797;-68
2023/05/07 05:05:18;;;;;;;;;2.50;2.50;;;;;;;;6266743;22;49996;-69
2023/05/07 05:07:43;;;;;;;;;3.25;2.00;;;;;;;;6266614;22;49864;-68
2023/05/07 05:10:08;;;;;;;;;2.00;2.00;;;;;;;;6266697;22;49502;-69
2023/05/07 05:12:34;;;;;;;;;3.00;3.00;;;;;;;;6265939;22;51550;-68
2023/05/07 05:14:59;;;;;;;;;2.00;2.00;;;;;;;;6266410;22;49629;-68
2023/05/07 05:17:24;;;;;;;;;2.00;1.50;;;;;;;;6266776;22;49740;-69
2023/05/07 05:19:49;;;;;;;;;3.00;2.75;;;;;;;;6266827;22;49860;-68
2023/05/07 05:22:15;;;;;;;;;2.00;2.00;;;;;;;;6265945;22;49638;-68
2023/05/07 05:24:40;;;;;;;;;2.00;2.00;;;;;;;;6266150;22;49596;-68
2023/05/07 05:27:05;;;;;;;;;1.75;1.75;;;;;;;;6238354;22;49966;-68
2023/05/07 05:29:31;;;;;;;;;1.75;1.75;;;;;;;;6266552;22;49589;-68
2023/05/07 05:31:56;;;;;;;;;4.75;2.50;;;;;;;;6265992;22;51371;-69
2023/05/07 05:34:22;;;;;;;;;2.25;2.25;;;;;;;;6266257;22;49688;-69
2023/05/07 05:36:47;;;;;;;;;2.00;2.00;;;;;;;;6266243;22;49655;-69
2023/05/07 05:39:12;;;;;;;;;2.00;2.00;;;;;;;;6266787;22;49643;-69
2023/05/07 05:41:37;;;;;;;;;3.00;3.00;;;;;;;;6266298;22;50203;-69
2023/05/07 05:44:02;;;;;;;;;2.00;2.00;;;;;;;;6238546;22;49621;-69
2023/05/07 05:46:28;;;;;;;;;2.00;2.00;;;;;;;;6238300;22;50101;-69
2023/05/07 05:48:53;;;;;;;;;2.75;2.00;;;;;;;;6266209;22;49941;-69
2023/05/07 05:51:20;;;;;;;;;2.75;2.75;;;;;;;;6265248;22;50984;-69
2023/05/07 05:53:45;;;;;;;;;4.00;4.00;;;;;;;;6265228;22;49729;-68
2023/05/07 05:56:11;;;;;;;;;2.00;2.00;;;;;;;;6265193;22;49950;-68
2023/05/07 05:58:36;;;;;;;;;1.00;1.00;;;;;;;;6265835;22;49984;-69
2023/05/07 06:01:02;;;;;;;;;2.00;2.00;;;;;;;;6265292;22;50433;-68
2023/05/07 06:03:27;;;;;;;;;4.00;3.00;;;;;;;;6265147;22;49700;-69
2023/05/07 06:05:53;;;;;;;;;2.00;2.00;;;;;;;;6265332;22;49655;-69
2023/05/07 06:08:18;;;;;;;;;1.25;1.25;;;;;;;;6265751;22;49567;-68
2023/05/07 06:10:43;;;;;;;;;2.25;2.25;;;;;;;;6264691;22;50142;-68
2023/05/07 06:13:08;;;;;;;;;2.00;2.00;;;;;;;;6265637;22;50084;-69
2023/05/07 06:15:34;;;;;;;;;4.00;3.00;;;;;;;;6237692;22;49952;-69
2023/05/07 06:17:59;;;;;;;;;1.00;1.00;;;;;;;;6265773;22;50401;-69
2023/05/07 06:20:24;;;;;;;;;3.50;3.50;;;;;;;;6265025;22;49668;-69
2023/05/07 06:22:49;;;;;;;;;1.50;1.50;;;;;;;;6265483;22;49655;-69
2023/05/07 06:25:14;;;;;;;;;3.25;2.00;;;;;;;;6265207;22;49823;-69
2023/05/07 06:27:40;;;;;;;;;3.50;3.50;;;;;;;;6265266;22;49566;-68
2023/05/07 06:30:06;;;;;;;;;3.75;3.75;;;;;;;;6264896;22;50503;-69
2023/05/07 06:32:31;;;;;;;;;4.00;3.00;;;;;;;;6264934;22;49898;-69
2023/05/07 06:34:56;;;;;;;;;3.00;3.00;;;;;;;;6265427;22;49960;-69
2023/05/07 06:37:21;;;;;;;;;2.75;2.75;;;;;;;;6265798;22;49460;-68
2023/05/07 06:39:46;;;;;;;;;3.00;3.00;;;;;;;;6265254;22;50958;-70
2023/05/07 06:42:11;;;;;;;;;3.50;2.00;;;;;;;;6265012;22;49960;-70
2023/05/07 06:44:37;;;;;;;;;1.00;1.00;;;;;;;;6265476;22;49892;-68
2023/05/07 06:47:02;;;;;;;;;3.25;2.50;;;;;;;;6265566;22;49805;-69
2023/05/07 06:49:27;;;;;;;;;1.00;1.00;;;;;;;;6265258;22;50017;-68
2023/05/07 06:51:52;;;;;;;;;1.00;1.00;;;;;;;;6264823;22;49844;-69
2023/05/07 06:54:18;;;;;;;;;2.50;1.00;;;;;;;;6265213;22;49559;-68
2023/05/07 06:56:43;;;;;;;;;2.25;1.00;;;;;;;;6265607;22;50119;-69
2023/05/07 06:59:08;;;;;;;;;1.00;1.00;;;;;;;;6265053;22;49748;-69
2023/05/07 07:01:34;;;;;;;;;0.00;0.00;;;;;;;;6264762;22;49880;-68
2023/05/07 07:03:59;;;;;;;;;0.75;0.75;;;;;;;;6265481;22;49637;-68
2023/05/07 07:06:25;;;;;;;;;1.75;1.75;;;;;;;;6265151;22;49577;-68
2023/05/07 07:08:50;;;;;;;;;1.75;1.75;;;;;;;;6264574;22;50412;-69
2023/05/07 07:11:16;;;;;;;;;1.00;1.00;;;;;;;;6264830;22;50021;-68
2023/05/07 07:13:42;;;;;;;;;0.50;0.50;;;;;;;;6265295;22;49815;-68
2023/05/07 07:16:07;;;;;;;;;3.00;2.00;;;;;;;;6264669;22;49988;-68
2023/05/07 07:18:33;;;;;;;;;0.00;0.00;;;;;;;;6236363;22;52267;-68
2023/05/07 07:20:58;;;;;;;;;1.50;1.50;;;;;;;;6265101;22;49571;-68
2023/05/07 07:23:24;;;;;;;;;1.25;1.25;;;;;;;;6264797;22;49670;-68
2023/05/07 07:25:49;;;;;;;;;2.50;2.50;;;;;;;;6265343;22;49518;-68
2023/05/07 07:28:14;;;;;;;;;0.25;0.25;;;;;;;;6237527;22;49903;-68
2023/05/07 07:30:39;;;;;;;;;1.00;1.00;;;;;;;;6237057;22;49518;-69
2023/05/07 07:33:05;;;;;;;;;2.00;1.00;;;;;;;;6237538;22;49995;-68
2023/05/07 07:35:30;;;;;;;;;0.00;0.00;;;;;;;;6264922;22;50284;-68
2023/05/07 07:37:57;;;;;;;;;4.00;2.00;;;;;;;;6236920;22;51836;-68
2023/05/07 07:40:22;;;;;;;;;1.75;1.75;;;;;;;;6264710;22;49924;-69
2023/05/07 07:42:47;;;;;;;;;1.00;1.00;;;;;;;;6265017;22;50289;-69
2023/05/07 07:45:12;;;;;;;;;1.75;1.75;;;;;;;;6264685;22;50002;-68
2023/05/07 07:47:38;;;;;;;;;2.00;1.00;;;;;;;;6264503;22;50640;-69
2023/05/07 07:50:03;;;;;;;;;2.00;2.00;;;;;;;;6264139;22;49690;-69
2023/05/07 07:52:29;;;;;;;;;1.25;1.25;;;;;;;;6264746;22;49968;-69
2023/05/07 07:54:54;;;;;;;;;1.00;1.00;;;;;;;;6264933;22;50340;-69
2023/05/07 07:57:19;;;;;;;;;2.00;2.00;;;;;;;;6264325;22;51581;-69
2023/05/07 07:59:45;;;;;;;;;2.75;1.00;;;;;;;;6264530;22;49857;-69
2023/05/07 08:02:10;;;;;;;;;2.50;2.50;;;;;;;;6263832;22;49593;-69
2023/05/07 08:04:37;;;;;;;;;1.25;1.25;;;;;;;;6264835;22;49597;-68
2023/05/07 08:07:02;;;;;;;;;2.25;2.25;;;;;;;;6237037;22;51329;-68
2023/05/07 08:09:27;;;;;;;;;2.00;2.00;;;;;;;;6236908;22;49978;-68
2023/05/07 08:11:52;;;;;;;;;0.50;0.50;;;;;;;;6264956;22;49881;-69
2023/05/07 08:14:17;;;;;;;;;2.00;2.00;;;;;;;;6264569;22;49989;-69
2023/05/07 08:16:42;;;;;;;;;2.75;2.00;;;;;;;;6264592;22;50256;-69
2023/05/07 08:19:08;;;;;;;;;1.00;1.00;;;;;;;;6264999;22;49756;-68
2023/05/07 08:21:33;;;;;;;;;1.00;1.00;;;;;;;;6264429;22;49872;-69
2023/05/07 08:23:59;;;;;;;;;1.00;0.00;;;;;;;;6264620;22;49909;-69
2023/05/07 08:26:24;;;;;;;;;1.00;1.00;;;;;;;;6264105;22;51111;-68
2023/05/07 08:28:49;;;;;;;;;1.00;1.00;;;;;;;;6263190;22;49660;-69
2023/05/07 08:31:14;;;;;;;;;3.00;1.25;;;;;;;;6263799;22;49838;-69
2023/05/07 08:33:40;;;;;;;;;1.25;1.25;;;;;;;;6263385;22;49833;-69
2023/05/07 08:36:05;;;;;;;;;1.00;1.00;;;;;;;;6263425;22;49632;-69
2023/05/07 08:38:31;;;;;;;;;1.00;1.00;;;;;;;;6263654;22;49572;-69
2023/05/07 08:40:56;;;;;;;;;1.00;1.00;;;;;;;;6263474;22;49491;-70
2023/05/07 08:43:21;;;;;;;;;1.00;1.00;;;;;;;;6263428;22;49888;-69
2023/05/07 08:45:49;;;;;;;;;2.50;1.00;;;;;;;;6235306;22;51535;-70
2023/05/07 08:48:15;;;;;;;;;2.00;2.00;;;;;;;;6264587;22;49727;-74
2023/05/07 08:50:40;;;;;;;;;2.75;2.75;;;;;;;;6264382;22;49937;-70
2023/05/07 08:53:06;;;;;;;;;1.75;1.75;;;;;;;;6264944;22;49716;-70
2023/05/07 08:55:31;;;;;;;;;1.25;1.25;;;;;;;;6263850;22;50100;-77
2023/05/07 08:57:56;;;;;;;;;1.00;1.00;;;;;;;;6263708;22;49916;-71
2023/05/07 09:00:21;;;;;;;;;2.00;2.00;;;;;;;;6236423;22;49642;-72
2023/05/07 09:02:47;;;;;;;;;1.50;1.50;;;;;;;;6263709;22;50055;-72
2023/05/07 09:05:12;;;;;;;;;2.25;1.25;;;;;;;;6263600;22;51255;-73
2023/05/07 09:07:37;;;;;;;;;2.75;2.75;;;;;;;;6264385;22;49608;-73
2023/05/07 09:10:04;;;;;;;;;2.25;2.25;;;;;;;;6265356;22;49798;-74
2023/05/07 09:12:29;;;;;;;;;1.75;1.00;;;;;;;;6237152;22;49516;-73
2023/05/07 09:14:54;;;;;;;;;2.00;2.00;;;;;;;;6232936;22;51432;-73
2023/05/07 09:17:19;;;;;;;;;2.50;2.50;;;;;;;;6263352;22;49614;-73
2023/05/07 09:19:47;;;;;;;;;2.75;1.50;;;;;;;;6265045;22;49594;-73
2023/05/07 09:22:13;;;;;;;;;0.00;0.00;;;;;;;;6264837;22;50181;-72
2023/05/07 09:24:38;;;;;;;;;0.50;0.50;;;;;;;;6264170;22;50566;-73
2023/05/07 09:27:04;;;;;;;;;1.75;1.75;;;;;;;;6264118;22;49665;-69
2023/05/07 09:29:34;;;;;;;;;1.50;1.50;;;;;;;;6264443;22;49606;-77
2023/05/07 09:32:00;;;;;;;;;2.00;2.00;;;;;;;;6265181;22;50025;-74
2023/05/07 09:34:25;;;;;;;;;1.25;1.00;;;;;;;;6236307;22;50801;-75
2023/05/07 09:36:50;;;;;;;;;2.00;2.00;;;;;;;;6264556;22;49702;-73
2023/05/07 09:39:16;;;;;;;;;3.50;2.00;;;;;;;;6264759;22;49654;-72
2023/05/07 09:41:45;;;;;;;;;2.00;2.00;;;;;;;;6264465;22;50023;-71
2023/05/07 09:44:10;;;;;;;;;3.00;3.00;;;;;;;;6264047;22;49959;-75
2023/05/07 09:46:36;;;;;;;;;4.00;3.00;;;;;;;;6265571;22;49717;-71
2023/05/07 09:49:02;;;;;;;;;2.00;2.00;;;;;;;;6266052;22;49658;-70
2023/05/07 09:51:27;;;;;;;;;3.25;3.25;;;;;;;;6266279;22;50074;-70
2023/05/07 09:53:52;;;;;;;;;1.75;1.75;;;;;;;;6266018;22;51220;-75
2023/05/07 09:56:18;;;;;;;;;2.00;2.00;;;;;;;;6237629;22;49679;-75
2023/05/07 09:58:44;;;;;;;;;1.50;1.50;;;;;;;;6266554;22;49614;-67
2023/05/07 10:01:10;;;;;;;;;2.00;2.00;;;;;;;;6265879;22;49935;-67
2023/05/07 10:03:36;;;;;;;;;5.00;5.00;;;;;;;;6265187;22;50691;-65
2023/05/07 10:06:01;;;;;;;;;5.00;5.00;;;;;;;;6265117;22;49669;-67
2023/05/07 10:08:27;;;;;;;;;3.75;3.00;;;;;;;;6265967;22;49729;-66
2023/05/07 10:10:52;;;;;;;;;4.00;3.50;;;;;;;;6265820;22;49903;-67
2023/05/07 10:13:18;;;;;;;;;4.25;3.00;;;;;;;;6265803;22;49824;-68
2023/05/07 10:15:44;;;;;;;;;3.00;3.00;;;;;;;;6238161;22;50085;-67
2023/05/07 10:18:10;;;;;;;;;3.50;3.50;;;;;;;;6265792;22;50060;-68
2023/05/07 10:20:36;;;;;;;;;4.50;4.25;;;;;;;;6265904;22;49951;-67
2023/05/07 10:23:04;;;;;;;;;4.75;3.75;;;;;;;;6265134;22;50543;-67
2023/05/07 10:25:30;;;;;;;;;18.50;7.00;;;;;;;;6264935;22;49963;-68
2023/05/07 10:27:56;;;;;;;;;6.25;5.25;;;;;;;;6263566;22;50009;-67
2023/05/07 10:30:40;;;;;;;;;5.00;5.00;;;;;;;;6263562;22;49898;-69
2023/05/07 10:33:06;;;;;;;;;6.00;6.00;;;;;;;;6259628;22;49960;-67
2023/05/07 10:35:35;;;;;;;;;3.75;3.75;;;;;;;;6261947;22;49555;-66
2023/05/07 10:38:01;;;;;;;;;6.25;6.25;;;;;;;;6263342;22;50110;-69
2023/05/07 10:40:26;;;;;;;;;6.25;5.50;;;;;;;;6263874;22;50052;-68
2023/05/07 10:43:01;;;;;;;;;5.00;5.00;;;;;;;;6263329;22;51416;-67
2023/05/07 10:45:27;;;;;;;;;7.00;6.00;;;;;;;;6235870;22;50007;-69
2023/05/07 10:48:09;;;;;;;;;5.00;5.00;;;;;;;;6263922;22;50086;-71
2023/05/07 10:50:34;;;;;;;;;5.25;5.25;;;;;;;;6263962;22;49826;-69
2023/05/07 10:53:15;;;;;;;;;0.25;0.25;;;;;;;;6235364;22;51451;-67
2023/05/07 10:55:40;;;;;;;;;4.00;4.00;;;;;;;;6262965;22;49664;-71
2023/05/07 10:58:20;;;;;;;;;6.50;5.50;;;;;;;;6263802;22;49905;-72
2023/05/07 11:00:46;;;;;;;;;5.50;3.50;;;;;;;;6264558;22;50067;-72
2023/05/07 11:03:11;;;;;;;;;6.25;6.25;;;;;;;;6254188;22;50903;-72
2023/05/07 11:05:37;;;;;;;;;4.25;4.25;;;;;;;;6261138;22;49567;-70
2023/05/07 11:08:03;;;;;;;;;4.50;4.50;;;;;;;;6263816;22;49557;-70
2023/05/07 11:10:47;;;;;;;;;5.00;5.00;;;;;;;;6263529;22;49550;-68
2023/05/07 11:13:13;;;;;;;;;6.50;5.50;;;;;;;;6263757;22;49726;-71
2023/05/07 11:15:39;;;;;;;;;4.00;2.75;;;;;;;;6263293;22;49828;-72
2023/05/07 11:18:05;;;;;;;;;4.75;3.75;;;;;;;;6264694;22;49686;-73
2023/05/07 11:20:56;;;;;;;;;4.50;3.75;;;;;;;;6265410;22;49855;-73
2023/05/07 11:23:34;;;;;;;;;5.00;4.75;;;;;;;;6256497;22;50665;-74
2023/05/07 11:26:03;;;;;;;;;4.00;4.00;;;;;;;;6265101;22;49670;-80
2023/05/07 11:28:29;;;;;;;;;4.75;4.75;;;;;;;;6265165;22;49519;-75
2023/05/07 11:30:55;;;;;;;;;6.50;6.50;;;;;;;;6257330;22;49805;-77
2023/05/07 11:33:21;;;;;;;;;7.75;5.75;;;;;;;;6264374;22;50690;-76
2023/05/07 11:35:47;;;;;;;;;7.50;7.50;;;;;;;;6265007;22;49799;-77
2023/05/07 11:38:13;;;;;;;;;7.25;7.25;;;;;;;;6264052;22;49704;-76
2023/05/07 11:40:51;;;;;;;;;8.25;8.25;;;;;;;;6264175;22;49596;-78
2023/05/07 11:43:16;;;;;;;;;6.75;6.00;;;;;;;;6264093;22;49685;-78
2023/05/07 11:45:41;;;;;;;;;7.00;7.00;;;;;;;;6263975;22;50172;-76
2023/05/07 11:48:06;;;;;;;;;5.75;5.25;;;;;;;;6263946;22;50094;-77
2023/05/07 11:50:31;;;;;;;;;9.25;7.75;;;;;;;;6236283;22;49567;-77
2023/05/07 11:52:57;;;;;;;;;5.00;5.00;;;;;;;;6258573;22;50162;-77
2023/05/07 11:55:24;;;;;;;;;4.50;4.50;;;;;;;;6262965;22;49869;-76
2023/05/07 11:57:50;;;;;;;;;3.50;3.50;;;;;;;;6265191;22;49705;-77
2023/05/07 12:00:16;;;;;;;;;7.25;6.25;;;;;;;;6263965;22;49643;-79
2023/05/07 12:02:42;;;;;;;;;4.50;4.50;;;;;;;;6230179;22;52090;-77
2023/05/07 12:05:07;;;;;;;;;5.00;5.00;;;;;;;;6234274;22;49718;-81
2023/05/07 12:07:36;;;;;;;;;3.50;3.50;;;;;;;;6233852;22;50351;-78
2023/05/07 12:10:05;;;;;;;;;5.25;4.25;;;;;;;;6233275;22;49661;-77
2023/05/07 12:12:30;;;;;;;;;6.25;6.25;;;;;;;;6233632;22;50885;-75
2023/05/07 12:14:55;;;;;;;;;7.00;7.00;;;;;;;;6233828;22;49742;-82
2023/05/07 12:17:21;;;;;;;;;5.75;5.75;;;;;;;;6235094;22;49745;-77
2023/05/07 12:19:46;;;;;;;;;7.75;7.50;;;;;;;;6234597;22;49925;-80
2023/05/07 12:22:12;;;;;;;;;7.75;7.50;;;;;;;;6233689;22;49996;-85
2023/05/07 12:24:44;;;;;;;;;14.25;12.00;;;;;;;;6234549;22;49755;-78
2023/05/07 12:27:09;;;;;;;;;8.25;8.00;;;;;;;;6234617;22;49856;-77
2023/05/07 12:29:35;;;;;;;;;6.00;5.25;;;;;;;;6234629;22;50343;-82
2023/05/07 12:32:00;;;;;;;;;17.75;16.00;;;;;;;;6234546;22;50322;-79
2023/05/07 12:34:25;;;;;;;;;5.50;5.50;;;;;;;;6234490;22;50019;-73
2023/05/07 12:36:50;;;;;;;;;6.00;6.00;;;;;;;;6227684;22;50113;-74
2023/05/07 12:39:16;;;;;;;;;9.00;7.25;;;;;;;;6234672;22;49997;-74
2023/05/07 12:41:58;;;;;;;;;8.00;7.00;;;;;;;;6233821;22;50412;-73
2023/05/07 12:44:24;;;;;;;;;12.00;12.00;;;;;;;;6234140;22;50002;-74
2023/05/07 12:46:49;;;;;;;;;7.50;7.50;;;;;;;;6232173;22;49973;-73
2023/05/07 12:49:14;;;;;;;;;12.75;8.75;;;;;;;;6232460;22;50006;-73
2023/05/07 12:51:40;;;;;;;;;7.25;7.25;;;;;;;;6233873;22;50111;-73
2023/05/07 12:54:05;;;;;;;;;7.50;5.50;;;;;;;;6234318;22;49637;-73
2023/05/07 12:56:31;;;;;;;;;4.75;4.75;;;;;;;;6234150;22;49817;-75
2023/05/07 12:58:57;;;;;;;;;7.00;6.00;;;;;;;;6233890;22;49951;-72
2023/05/07 13:01:28;;;;;;;;;8.75;7.75;;;;;;;;6233370;22;52178;-74
2023/05/07 13:03:53;;;;;;;;;6.00;6.00;;;;;;;;6265003;22;49979;-77
2023/05/07 13:06:18;;;;;;;;;6.50;6.50;;;;;;;;6263086;22;49483;-75
2023/05/07 13:08:43;;;;;;;;;8.25;7.00;;;;;;;;6261528;22;50046;-74
2023/05/07 13:11:09;;;;;;;;;5.50;5.25;;;;;;;;6264802;22;49689;-77
2023/05/07 13:13:35;;;;;;;;;7.25;6.50;;;;;;;;6264301;22;49973;-77
2023/05/07 13:16:01;;;;;;;;;3.00;2.50;;;;;;;;6264692;22;49703;-76
2023/05/07 13:18:27;;;;;;;;;4.25;3.25;;;;;;;;6265018;22;49837;-76
2023/05/07 13:20:55;;;;;;;;;3.75;3.75;;;;;;;;6265240;22;50242;-74
2023/05/07 13:23:20;;;;;;;;;2.25;2.25;;;;;;;;6266097;22;49707;-84
2023/05/07 13:25:45;;;;;;;;;3.00;3.00;;;;;;;;6266249;22;49723;-80
2023/05/07 13:28:11;;;;;;;;;3.75;3.75;;;;;;;;6266571;22;49523;-75
2023/05/07 13:30:36;;;;;;;;;3.25;3.25;;;;;;;;6266115;22;49700;-78
2023/05/07 13:33:01;;;;;;;;;3.00;3.00;;;;;;;;6265952;22;49619;-76
2023/05/07 13:35:27;;;;;;;;;5.00;4.00;;;;;;;;6266332;22;49903;-76
2023/05/07 13:37:52;;;;;;;;;3.00;3.00;;;;;;;;6266123;22;49847;-79
2023/05/07 13:40:19;;;;;;;;;5.00;5.00;;;;;;;;6264785;22;50666;-73
2023/05/07 13:42:44;;;;;;;;;4.75;4.75;;;;;;;;6265644;22;49647;-73
2023/05/07 13:45:09;;;;;;;;;4.25;4.25;;;;;;;;6266135;22;49581;-73
2023/05/07 13:47:34;;;;;;;;;5.00;5.00;;;;;;;;6238530;22;50012;-72
2023/05/07 13:50:00;;;;;;;;;7.75;6.75;;;;;;;;6265747;22;51264;-73
2023/05/07 13:52:25;;;;;;;;;6.00;6.00;;;;;;;;6238353;22;49909;-73
2023/05/07 13:54:52;;;;;;;;;7.25;6.25;;;;;;;;6265716;22;49986;-72
2023/05/07 13:57:17;;;;;;;;;6.50;6.50;;;;;;;;6266154;22;49623;-73
2023/05/07 13:59:42;;;;;;;;;9.00;8.50;;;;;;;;6265359;22;51535;-73
2023/05/07 14:02:08;;;;;;;;;9.25;8.00;;;;;;;;6265124;22;49693;-73
2023/05/07 14:04:34;;;;;;;;;6.00;6.00;;;;;;;;6265870;22;49873;-72
2023/05/07 14:06:59;;;;;;;;;7.50;7.50;;;;;;;;6258951;22;49910;-74
2023/05/07 14:09:24;;;;;;;;;7.00;7.00;;;;;;;;6265886;22;49794;-73
2023/05/07 14:11:51;;;;;;;;;7.00;7.00;;;;;;;;6265432;22;49560;-72
2023/05/07 14:14:16;;;;;;;;;7.00;7.00;;;;;;;;6265745;22;49678;-72
2023/05/07 14:16:42;;;;;;;;;7.00;7.00;;;;;;;;6265403;22;50010;-74
2023/05/07 14:19:07;;;;;;;;;7.50;7.50;;;;;;;;6265122;22;51390;-76
2023/05/07 14:21:32;;;;;;;;;10.00;10.00;;;;;;;;6264856;22;49770;-77
2023/05/07 14:23:57;;;;;;;;;8.50;6.75;;;;;;;;6265118;22;49579;-76
2023/05/07 14:26:23;;;;;;;;;8.50;7.75;;;;;;;;6264997;22;49741;-76
2023/05/07 14:28:48;;;;;;;;;8.00;8.00;;;;;;;;6264736;22;49918;-76
2023/05/07 14:31:13;;;;;;;;;8.50;8.00;;;;;;;;6263377;22;49681;-75
2023/05/07 14:33:38;;;;;;;;;8.00;8.00;;;;;;;;6264185;22;50029;-75
2023/05/07 14:36:04;;;;;;;;;7.75;7.50;;;;;;;;6259624;22;50045;-76